Time;durP1;ratioP1;P1;durP2;ratioP2;P2;SDS_P1;SDS_P2;PMS_P1;PMS_P2;Temp;Humidity;BMP_temperature;BMP_pressure;BME280_temperature;BME280_humidity;BME280_pressure;Samples;Min_cycle;Max_cycle;Signal;HPM_P1;HPM_P2
2023/09/25 00:01:46;;;;;;;;;;;;;;;22.29;72.08;97107.69;588718;241;68088;-67
2023/09/25 00:04:14;;;;;;;;;;;;;;;22.29;72.04;97099.66;588661;241;65151;-67
2023/09/25 00:06:42;;;;;;;;;;;;;;;22.29;72.02;97105.01;588697;241;68367;-67
2023/09/25 00:09:11;;;;;;;;;;;;;;;22.30;72.07;97106.59;588695;241;68374;-67
2023/09/25 00:11:38;;;;;;;;;;;;;;;22.30;72.06;97121.86;588760;241;63775;-67
2023/09/25 00:14:06;;;;;;;;;;;;;;;22.29;72.07;97113.04;588694;241;68354;-67
2023/09/25 00:16:34;;;;;;;;;;;;;;;22.29;72.09;97118.39;588688;241;68675;-66
2023/09/25 00:19:01;;;;;;;;;;;;;;;22.29;72.13;97117.57;588700;241;64964;-67
2023/09/25 00:21:30;;;;;;;;;;;;;;;22.29;72.22;97114.89;588732;241;68419;-67
2023/09/25 00:23:58;;;;;;;;;;;;;;;22.30;72.06;97125.34;588746;241;68299;-67
2023/09/25 00:26:27;;;;;;;;;;;;;;;22.30;72.17;97119.98;588724;241;62687;-67
2023/09/25 00:28:55;;;;;;;;;;;;;;;22.29;72.00;97122.92;588710;241;68590;-67
2023/09/25 00:31:22;;;;;;;;;;;;;;;22.30;72.00;97119.19;589804;239;65749;-67
2023/09/25 00:33:50;;;;;;;;;;;;;;;22.29;72.31;97120.25;593111;239;65309;-67
2023/09/25 00:36:18;;;;;;;;;;;;;;;22.28;72.15;97116.78;593150;239;68490;-67
2023/09/25 00:38:45;;;;;;;;;;;;;;;22.28;72.01;97122.13;593088;239;68760;-67
2023/09/25 00:41:13;;;;;;;;;;;;;;;22.29;72.02;97123.75;593098;239;63553;-67
2023/09/25 00:43:41;;;;;;;;;;;;;;;22.28;72.03;97119.45;593085;239;68544;-67
2023/09/25 00:46:10;;;;;;;;;;;;;;;22.28;72.05;97127.48;585935;239;66149;-67
2023/09/25 00:48:42;;;;;;;;;;;;;;;22.28;72.00;97127.48;593094;239;65325;-67
2023/09/25 00:51:07;;;;;;;;;;;;;;;22.28;72.01;97127.48;593015;239;67121;-67
2023/09/25 00:53:34;;;;;;;;;;;;;;;22.28;72.02;97130.16;593059;239;68684;-67
2023/09/25 00:56:02;;;;;;;;;;;;;;;22.29;71.99;97125.60;593078;239;62740;-67
2023/09/25 00:58:30;;;;;;;;;;;;;;;22.28;71.94;97124.02;593061;239;65673;-67
2023/09/25 01:00:58;;;;;;;;;;;;;;;22.29;71.91;97128.28;593070;239;68749;-67
2023/09/25 01:03:25;;;;;;;;;;;;;;;22.28;71.91;97130.16;593101;239;63038;-67
2023/09/25 01:05:53;;;;;;;;;;;;;;;22.28;71.90;97124.81;593078;239;69137;-67
2023/09/25 01:08:20;;;;;;;;;;;;;;;22.28;71.94;97135.52;593082;239;68842;-67
2023/09/25 01:10:49;;;;;;;;;;;;;;;22.28;71.93;97127.48;593055;239;63613;-67
2023/09/25 01:13:17;;;;;;;;;;;;;;;22.29;71.92;97130.95;593099;239;68771;-67
2023/09/25 01:15:45;;;;;;;;;;;;;;;22.28;71.90;97124.02;593129;239;68974;-67
2023/09/25 01:18:13;;;;;;;;;;;;;;;22.28;71.85;97124.02;593049;239;66429;-67
2023/09/25 01:20:41;;;;;;;;;;;;;;;22.27;71.82;97117.86;593109;239;66606;-67
2023/09/25 01:23:09;;;;;;;;;;;;;;;22.27;71.83;97117.06;593084;239;68729;-66
2023/09/25 01:25:37;;;;;;;;;;;;;;;22.28;71.82;97121.34;593025;239;66243;-67
2023/09/25 01:28:05;;;;;;;;;;;;;;;22.28;71.85;97124.02;593116;239;68781;-67
2023/09/25 01:30:32;;;;;;;;;;;;;;;22.27;71.89;97131.25;593086;239;66672;-67
2023/09/25 01:33:00;;;;;;;;;;;;;;;22.28;71.88;97129.37;588942;239;65058;-67
2023/09/25 01:35:27;;;;;;;;;;;;;;;22.27;71.86;97125.89;588613;241;66439;-67
2023/09/25 01:37:57;;;;;;;;;;;;;;;22.27;71.83;97128.57;588634;241;68928;-67
2023/09/25 01:40:25;;;;;;;;;;;;;;;22.27;71.85;97127.78;588735;241;65323;-67
2023/09/25 01:42:52;;;;;;;;;;;;;;;22.28;71.91;97134.72;588681;241;66339;-67
2023/09/25 01:45:20;;;;;;;;;;;;;;;22.26;71.92;97126.98;588697;241;69357;-67
2023/09/25 01:47:51;;;;;;;;;;;;;;;22.27;71.83;97117.86;588699;241;65089;-67
2023/09/25 01:50:19;;;;;;;;;;;;;;;22.27;71.72;97117.06;588693;241;66359;-67
2023/09/25 01:52:48;;;;;;;;;;;;;;;22.27;71.76;97119.75;588661;241;69064;-67
2023/09/25 01:55:15;;;;;;;;;;;;;;;22.27;71.72;97117.06;588724;241;66194;-67
2023/09/25 01:57:43;;;;;;;;;;;;;;;22.26;71.77;97118.95;588678;241;66347;-67
2023/09/25 02:00:12;;;;;;;;;;;;;;;22.27;71.78;97117.06;588675;241;68727;-67
2023/09/25 02:02:41;;;;;;;;;;;;;;;22.26;71.78;97118.95;588714;241;45232;-67
2023/09/25 02:05:10;;;;;;;;;;;;;;;22.27;71.85;97123.22;588664;241;67416;-67
2023/09/25 02:07:37;;;;;;;;;;;;;;;22.26;71.82;97113.59;588716;241;68498;-67
2023/09/25 02:10:05;;;;;;;;;;;;;;;22.27;71.85;97117.06;588698;241;62698;-67
2023/09/25 02:12:33;;;;;;;;;;;;;;;22.27;71.86;97117.06;588698;241;68467;-67
2023/09/25 02:15:02;;;;;;;;;;;;;;;22.25;71.83;97111.19;588659;241;66379;-67
2023/09/25 02:17:29;;;;;;;;;;;;;;;22.27;71.84;97122.42;588641;241;62697;-67
2023/09/25 02:20:08;;;;;;;;;;;;;;;22.26;71.82;97126.98;588689;241;66640;-67
2023/09/25 02:22:26;;;;;;;;;;;;;;;22.26;71.83;97124.30;588262;241;66403;-67
2023/09/25 02:24:53;;;;;;;;;;;;;;;22.26;71.79;97121.63;588668;241;64224;-67
2023/09/25 02:27:21;;;;;;;;;;;;;;;22.25;71.80;97121.89;588681;241;68954;-67
2023/09/25 02:29:49;;;;;;;;;;;;;;;22.26;71.75;97120.80;588677;241;68992;-67
2023/09/25 02:32:16;;;;;;;;;;;;;;;22.25;71.77;97128.04;591435;239;65102;-67
2023/09/25 02:34:45;;;;;;;;;;;;;;;22.25;71.78;97125.36;593077;239;69152;-67
2023/09/25 02:37:14;;;;;;;;;;;;;;;22.25;71.75;97127.25;593047;239;69350;-67
2023/09/25 02:39:41;;;;;;;;;;;;;;;22.25;71.76;97133.39;593077;239;65224;-67
2023/09/25 02:42:09;;;;;;;;;;;;;;;22.25;71.76;97130.72;593042;239;68635;-67
2023/09/25 02:44:37;;;;;;;;;;;;;;;22.25;71.82;97125.36;593031;239;68938;-67
2023/09/25 02:47:05;;;;;;;;;;;;;;;22.25;71.92;97125.36;593110;239;65072;-67
2023/09/25 02:49:32;;;;;;;;;;;;;;;22.24;71.83;97126.45;593047;239;69505;-67
2023/09/25 02:52:00;;;;;;;;;;;;;;;22.24;71.85;97129.13;593062;239;69564;-67
2023/09/25 02:54:27;;;;;;;;;;;;;;;22.25;71.84;97136.08;593049;239;66037;-68
2023/09/25 02:56:55;;;;;;;;;;;;;;;22.24;71.77;97139.83;593044;239;68917;-67
2023/09/25 02:59:22;;;;;;;;;;;;;;;22.25;71.82;97135.28;593093;239;66111;-67
2023/09/25 03:01:50;;;;;;;;;;;;;;;22.24;71.76;97139.83;593064;239;64717;-67
2023/09/25 03:04:18;;;;;;;;;;;;;;;22.24;71.78;97139.83;593067;239;69162;-68
2023/09/25 03:06:45;;;;;;;;;;;;;;;22.24;71.80;97150.55;593016;239;66743;-67
2023/09/25 03:09:13;;;;;;;;;;;;;;;22.24;71.81;97144.39;593064;239;65792;-67
2023/09/25 03:11:41;;;;;;;;;;;;;;;22.24;71.78;97149.75;593082;239;68893;-67
2023/09/25 03:14:08;;;;;;;;;;;;;;;22.24;71.84;97155.89;593050;239;68567;-67
2023/09/25 03:16:36;;;;;;;;;;;;;;;22.24;71.77;97155.89;593063;239;62679;-67
2023/09/25 03:19:03;;;;;;;;;;;;;;;22.24;71.77;97158.58;593071;239;66320;-67
2023/09/25 03:21:31;;;;;;;;;;;;;;;22.23;71.83;97159.63;593028;239;67189;-67
2023/09/25 03:23:58;;;;;;;;;;;;;;;22.24;71.79;97169.28;593150;239;62785;-67
2023/09/25 03:26:26;;;;;;;;;;;;;;;22.23;71.82;97170.34;593037;239;68549;-67
2023/09/25 03:28:53;;;;;;;;;;;;;;;22.23;71.78;97170.34;593063;239;68872;-67
2023/09/25 03:31:21;;;;;;;;;;;;;;;22.23;71.77;97173.02;591917;239;65050;-66
2023/09/25 03:33:48;;;;;;;;;;;;;;;22.23;71.73;97180.25;588660;241;66657;-67
2023/09/25 03:36:16;;;;;;;;;;;;;;;22.23;71.77;97182.93;588701;241;67433;-67
2023/09/25 03:38:44;;;;;;;;;;;;;;;22.23;71.72;97185.61;588645;241;62856;-66
2023/09/25 03:41:11;;;;;;;;;;;;;;;22.23;71.72;97191.75;588693;241;69236;-66
2023/09/25 03:43:39;;;;;;;;;;;;;;;22.23;71.73;97202.46;588662;241;68694;-67
2023/09/25 03:46:07;;;;;;;;;;;;;;;22.23;71.70;97207.02;588711;241;62968;-67
2023/09/25 03:48:34;;;;;;;;;;;;;;;22.23;71.69;97205.14;588738;241;68733;-67
2023/09/25 03:51:02;;;;;;;;;;;;;;;22.24;71.70;97208.64;588735;241;68459;-67
2023/09/25 03:53:29;;;;;;;;;;;;;;;22.22;71.71;97210.78;588663;241;64868;-66
2023/09/25 03:55:57;;;;;;;;;;;;;;;22.22;71.70;97208.91;588697;241;66069;-66
2023/09/25 03:58:24;;;;;;;;;;;;;;;22.23;71.63;97212.37;588701;241;66252;-67
2023/09/25 04:00:52;;;;;;;;;;;;;;;22.23;71.64;97218.52;588772;241;65323;-66
2023/09/25 04:03:20;;;;;;;;;;;;;;;22.22;71.61;97216.94;588751;241;68619;-66
2023/09/25 04:05:47;;;;;;;;;;;;;;;22.23;71.63;97226.55;588702;241;68426;-66
2023/09/25 04:08:15;;;;;;;;;;;;;;;22.23;71.63;97223.08;588703;241;64903;-66
2023/09/25 04:10:43;;;;;;;;;;;;;;;22.22;71.64;97227.64;588692;241;68179;-67
2023/09/25 04:13:11;;;;;;;;;;;;;;;22.22;71.56;97224.97;588722;241;68358;-66
2023/09/25 04:15:40;;;;;;;;;;;;;;;22.22;71.59;97229.52;588742;241;64999;-66
2023/09/25 04:18:08;;;;;;;;;;;;;;;22.21;71.60;97234.08;588655;241;66724;-66
2023/09/25 04:20:35;;;;;;;;;;;;;;;22.22;71.60;97227.64;588647;241;68872;-66
2023/09/25 04:23:03;;;;;;;;;;;;;;;22.21;71.53;97228.73;588710;241;64881;-66
2023/09/25 04:25:31;;;;;;;;;;;;;;;22.21;71.54;97236.76;588684;241;66547;-67
2023/09/25 04:27:59;;;;;;;;;;;;;;;22.22;71.50;97234.87;588749;241;66616;-67
2023/09/25 04:30:27;;;;;;;;;;;;;;;22.21;71.46;97241.28;588691;241;65052;-67
2023/09/25 04:32:55;;;;;;;;;;;;;;;22.21;71.46;97242.11;592589;239;68874;-67
2023/09/25 04:35:24;;;;;;;;;;;;;;;22.21;71.47;97242.11;593090;239;68568;-67
2023/09/25 04:37:53;;;;;;;;;;;;;;;22.22;71.40;97249.06;593092;239;65789;-67
2023/09/25 04:42:50;;;;;;;;;;;;;;;22.21;71.47;97258.17;593054;239;68753;-67
2023/09/25 04:45:18;;;;;;;;;;;;;;;22.21;71.43;97255.50;593030;239;62785;-67
2023/09/25 04:47:47;;;;;;;;;;;;;;;22.21;71.48;97257.34;593072;239;67754;-67
2023/09/25 04:50:15;;;;;;;;;;;;;;;22.20;71.41;97267.27;593066;239;68549;-67
2023/09/25 04:52:48;;;;;;;;;;;;;;;22.21;71.45;97262.70;593050;239;65096;-67
2023/09/25 04:55:14;;;;;;;;;;;;;;;22.20;71.48;97264.59;592794;239;68716;-67
2023/09/25 04:57:43;;;;;;;;;;;;;;;22.20;71.43;97267.27;593060;239;68584;-67
2023/09/25 05:00:17;;;;;;;;;;;;;;;22.19;71.46;97257.64;592748;239;65001;-67
2023/09/25 05:02:46;;;;;;;;;;;;;;;22.20;71.42;97259.23;593102;239;68691;-67
2023/09/25 05:05:14;;;;;;;;;;;;;;;22.20;71.39;97256.55;593061;239;68626;-67
2023/09/25 05:07:43;;;;;;;;;;;;;;;22.19;71.35;97257.64;593133;239;65080;-67
2023/09/25 05:10:11;;;;;;;;;;;;;;;22.20;71.36;97259.23;593031;239;68724;-67
2023/09/25 05:12:39;;;;;;;;;;;;;;;22.20;71.31;97261.91;593028;239;66816;-66
2023/09/25 05:15:08;;;;;;;;;;;;;;;22.19;71.35;97260.31;593056;239;63075;-66
2023/09/25 05:17:36;;;;;;;;;;;;;;;22.20;71.27;97272.62;593093;239;68920;-66
2023/09/25 05:20:15;;;;;;;;;;;;;;;22.20;71.25;97283.33;593114;239;68577;-66
2023/09/25 05:22:49;;;;;;;;;;;;;;;22.19;71.25;97279.05;593146;239;62956;-67
2023/09/25 05:25:17;;;;;;;;;;;;;;;22.19;71.29;97276.38;593058;239;68886;-68
2023/09/25 05:27:46;;;;;;;;;;;;;;;22.19;71.27;97281.73;593111;239;68329;-68
2023/09/25 05:30:17;;;;;;;;;;;;;;;22.19;71.24;97280.94;593074;239;64937;-68
2023/09/25 05:32:45;;;;;;;;;;;;;;;22.19;71.32;97284.41;593037;239;67434;-66
2023/09/25 05:35:13;;;;;;;;;;;;;;;22.19;71.27;97280.94;593085;239;66807;-66
2023/09/25 05:37:42;;;;;;;;;;;;;;;22.19;71.36;97289.77;593047;239;65132;-67
2023/09/25 05:40:13;;;;;;;;;;;;;;;22.20;71.28;97290.56;593069;239;66720;-68
2023/09/25 05:42:47;;;;;;;;;;;;;;;22.19;71.33;97288.97;593078;239;68646;-68
2023/09/25 05:45:14;;;;;;;;;;;;;;;22.19;71.26;97295.12;592585;239;46982;-68
2023/09/25 05:47:43;;;;;;;;;;;;;;;22.20;71.30;97298.59;593060;239;69136;-68
2023/09/25 05:50:11;;;;;;;;;;;;;;;22.19;71.22;97319.20;593083;239;66744;-68
2023/09/25 05:52:39;;;;;;;;;;;;;;;22.19;71.27;97319.20;592993;239;62879;-68
2023/09/25 05:55:08;;;;;;;;;;;;;;;22.19;71.26;97315.73;593037;239;68530;-68
2023/09/25 05:57:36;;;;;;;;;;;;;;;22.19;71.30;97319.20;593028;239;68885;-67
2023/09/25 06:00:11;;;;;;;;;;;;;;;22.19;71.25;97321.88;592944;239;62898;-67
2023/09/25 06:02:34;;;;;;;;;;;;;;;22.19;71.24;97315.73;592810;239;70854;-70
2023/09/25 06:05:01;;;;;;;;;;;;;;;22.19;71.20;97321.09;593057;239;68732;-67
2023/09/25 06:07:30;;;;;;;;;;;;;;;22.18;71.24;97328.32;593064;239;62755;-66
2023/09/25 06:09:57;;;;;;;;;;;;;;;22.17;71.31;97327.47;593031;239;68650;-69
2023/09/25 06:12:25;;;;;;;;;;;;;;;22.18;71.48;97317.61;593029;239;68711;-69
2023/09/25 06:14:53;;;;;;;;;;;;;;;22.17;71.68;97327.47;593096;239;65044;-67
2023/09/25 06:17:20;;;;;;;;;;;;;;;22.18;72.10;97322.97;593047;239;66357;-66
2023/09/25 06:19:48;;;;;;;;;;;;;;;22.16;71.89;97328.55;592424;239;68914;-66
2023/09/25 06:22:16;;;;;;;;;;;;;;;22.17;72.59;97332.02;593049;239;64935;-67
2023/09/25 06:24:44;;;;;;;;;;;;;;;22.16;72.41;97336.58;593046;239;68824;-67
2023/09/25 06:27:12;;;;;;;;;;;;;;;22.17;72.36;97334.70;592920;239;66058;-66
2023/09/25 06:29:40;;;;;;;;;;;;;;;22.17;72.27;97332.81;595121;236;64895;-66
2023/09/25 06:32:07;;;;;;;;;;;;;;;22.19;72.13;97337.15;596169;236;68671;-67
2023/09/25 06:34:35;;;;;;;;;;;;;;;22.19;72.55;97334.47;592884;239;66468;-67
2023/09/25 06:37:02;;;;;;;;;;;;;;;22.19;72.93;97345.18;593022;239;63058;-67
2023/09/25 06:39:33;;;;;;;;;;;;;;;22.19;72.57;97345.98;592783;239;49962;-67
2023/09/25 06:42:00;;;;;;;;;;;;;;;22.19;72.64;97348.66;593014;239;68274;-66
2023/09/25 06:44:28;;;;;;;;;;;;;;;22.20;72.86;97354.80;593017;239;63002;-67
2023/09/25 06:46:56;;;;;;;;;;;;;;;22.19;72.61;97348.66;593014;239;68813;-67
2023/09/25 06:49:24;;;;;;;;;;;;;;;22.19;72.73;97351.33;592946;239;68882;-67
2023/09/25 06:51:51;;;;;;;;;;;;;;;22.20;72.64;97349.45;593003;239;63104;-67
2023/09/25 06:54:19;;;;;;;;;;;;;;;22.20;72.64;97352.12;593050;239;66631;-67
2023/09/25 06:56:48;;;;;;;;;;;;;;;22.21;72.62;97353.72;592929;239;66599;-66
2023/09/25 06:59:15;;;;;;;;;;;;;;;22.21;72.67;97356.40;593013;239;65080;-66
2023/09/25 07:01:43;;;;;;;;;;;;;;;22.20;72.67;97354.80;592963;239;66430;-66
2023/09/25 07:04:11;;;;;;;;;;;;;;;22.21;72.72;97359.91;593002;239;68573;-66
2023/09/25 07:06:39;;;;;;;;;;;;;;;22.21;72.67;97354.55;593024;239;65096;-65
2023/09/25 07:09:09;;;;;;;;;;;;;;;22.22;72.91;97366.84;592923;239;68538;-66
2023/09/25 07:11:36;;;;;;;;;;;;;;;22.21;72.67;97359.91;592647;238;68669;-66
2023/09/25 07:14:04;;;;;;;;;;;;;;;22.22;72.54;97364.17;592980;239;65025;-67
2023/09/25 07:16:31;;;;;;;;;;;;;;;22.22;72.98;97358.02;592970;239;69150;-66
2023/09/25 07:18:59;;;;;;;;;;;;;;;22.23;73.39;97364.97;592881;239;68594;-67
2023/09/25 07:21:26;;;;;;;;;;;;;;;22.23;73.42;97368.44;593010;239;64861;-68
2023/09/25 07:23:54;;;;;;;;;;;;;;;22.23;73.32;97368.44;592948;239;68784;-68
2023/09/25 07:26:21;;;;;;;;;;;;;;;22.23;73.19;97373.80;592994;239;68714;-67
2023/09/25 07:28:49;;;;;;;;;;;;;;;22.23;73.37;97365.77;592942;239;65037;-66
2023/09/25 07:31:21;;;;;;;;;;;;;;;22.23;73.17;97367.64;593665;238;68704;-67
2023/09/25 07:33:58;;;;;;;;;;;;;;;22.23;72.88;97378.36;596203;238;66572;-66
2023/09/25 07:36:24;;;;;;;;;;;;;;;22.23;72.96;97379.15;595830;238;62974;-66
2023/09/25 07:38:52;;;;;;;;;;;;;;;22.24;72.60;97386.13;596108;238;68786;-66
2023/09/25 07:41:19;;;;;;;;;;;;;;;22.23;72.65;97384.50;596176;238;68849;-66
2023/09/25 07:43:48;;;;;;;;;;;;;;;22.24;72.46;97383.45;596189;238;63053;-66
2023/09/25 07:46:17;;;;;;;;;;;;;;;22.24;71.12;97386.13;596157;238;68904;-65
2023/09/25 07:48:45;;;;;;;;;;;;;;;22.27;71.54;97390.94;592803;238;66646;-68
2023/09/25 07:51:13;;;;;;;;;;;;;;;22.31;68.24;97391.98;593111;239;65229;-66
2023/09/25 07:53:45;;;;;;;;;;;;;;;22.34;68.21;97391.48;593125;239;68900;-68
2023/09/25 07:56:12;;;;;;;;;;;;;;;22.36;69.57;97394.66;592537;239;68505;-66
2023/09/25 07:58:42;;;;;;;;;;;;;;;22.36;69.75;97389.31;593072;239;64917;-69
2023/09/25 08:01:10;;;;;;;;;;;;;;;22.36;67.95;97397.34;593057;239;66109;-67
2023/09/25 08:03:38;;;;;;;;;;;;;;;22.35;70.75;97397.62;592798;236;68870;-67
2023/09/25 08:06:06;;;;;;;;;;;;;;;22.33;71.06;97392.53;593160;239;62654;-67
2023/09/25 08:08:34;;;;;;;;;;;;;;;22.32;70.59;97398.97;592998;239;68341;-67
2023/09/25 08:11:02;;;;;;;;;;;;;;;22.32;70.97;97396.29;592777;239;68340;-65
2023/09/25 08:13:30;;;;;;;;;;;;;;;22.33;71.27;97395.20;592665;239;63044;-66
2023/09/25 08:15:59;;;;;;;;;;;;;;;22.32;70.40;97401.64;593017;239;68591;-66
2023/09/25 08:18:27;;;;;;;;;;;;;;;22.32;69.97;97393.61;592348;239;66486;-65
2023/09/25 08:20:54;;;;;;;;;;;;;;;22.34;70.27;97396.00;593075;239;63179;-64
2023/09/25 08:23:22;;;;;;;;;;;;;;;22.33;70.40;97392.53;592911;239;65849;-64
2023/09/25 08:25:49;;;;;;;;;;;;;;;22.33;70.32;97386.37;593212;239;66351;-66
2023/09/25 08:28:17;;;;;;;;;;;;;;;22.32;70.46;97388.26;593067;239;62964;-66
2023/09/25 08:30:44;;;;;;;;;;;;;;;22.33;70.88;97395.20;592925;239;66762;-64
2023/09/25 08:33:15;;;;;;;;;;;;;;;22.33;71.15;97394.41;592679;239;68681;-64
2023/09/25 08:35:43;;;;;;;;;;;;;;;22.33;71.32;97397.88;592635;238;64814;-64
2023/09/25 08:38:12;;;;;;;;;;;;;;;22.33;71.48;97402.44;592711;239;68654;-65
2023/09/25 08:40:41;;;;;;;;;;;;;;;22.33;71.53;97399.77;592702;239;66475;-65
2023/09/25 08:43:09;;;;;;;;;;;;;;;22.33;71.62;97400.56;592278;239;66212;-65
2023/09/25 08:45:37;;;;;;;;;;;;;;;22.33;71.64;97395.20;593045;239;69447;-65
2023/09/25 08:48:05;;;;;;;;;;;;;;;22.32;71.46;97393.61;593190;239;66604;-65
2023/09/25 08:50:33;;;;;;;;;;;;;;;22.33;71.46;97394.41;593166;239;65175;-65
2023/09/25 08:53:01;;;;;;;;;;;;;;;22.32;71.54;97392.81;593120;239;68900;-63
2023/09/25 08:55:29;;;;;;;;;;;;;;;22.33;71.61;97384.50;593205;239;68642;-63
2023/09/25 08:57:56;;;;;;;;;;;;;;;22.33;71.48;97389.85;593140;239;65128;-63
2023/09/25 09:00:24;;;;;;;;;;;;;;;22.33;71.79;97391.73;592549;239;66562;-62
2023/09/25 09:02:52;;;;;;;;;;;;;;;22.33;71.87;97387.17;592982;239;66625;-64
2023/09/25 09:05:19;;;;;;;;;;;;;;;22.33;71.92;97395.20;592974;239;62810;-63
2023/09/25 09:07:51;;;;;;;;;;;;;;;22.33;71.96;97381.82;592976;237;66786;-64
2023/09/25 09:10:19;;;;;;;;;;;;;;;22.33;71.94;97375.67;599014;236;68325;-65
2023/09/25 09:12:53;;;;;;;;;;;;;;;22.32;71.92;97382.91;601276;236;64866;-66
2023/09/25 09:15:26;;;;;;;;;;;;;;;22.33;71.76;97389.05;601305;236;68955;-67
2023/09/25 09:17:54;;;;;;;;;;;;;;;22.33;71.84;97386.37;601254;236;67991;-66
2023/09/25 09:20:24;;;;;;;;;;;;;;;22.33;71.91;97383.70;601265;236;65073;-65
2023/09/25 09:22:52;;;;;;;;;;;;;;;22.33;71.84;97387.17;600324;236;68430;-64
2023/09/25 09:25:27;;;;;;;;;;;;;;;22.34;71.73;97385.30;601252;236;66194;-65
2023/09/25 09:27:54;;;;;;;;;;;;;;;22.35;70.08;97377.00;601308;236;65047;-64
2023/09/25 09:30:23;;;;;;;;;;;;;;;22.36;67.93;97375.92;601312;236;68640;-64
2023/09/25 09:32:51;;;;;;;;;;;;;;;22.36;67.64;97375.92;599415;236;68687;-65
2023/09/25 09:35:23;;;;;;;;;;;;;;;22.38;68.58;97386.37;599295;236;65101;-64
2023/09/25 09:37:48;;;;;;;;;;;;;;;22.38;70.05;97381.81;599176;236;66414;-65
2023/09/25 09:40:17;;;;;;;;;;;;;;;22.37;70.69;97377.55;599191;236;68698;-65
2023/09/25 09:42:46;;;;;;;;;;;;;;;22.38;71.69;97372.98;599129;236;63006;-64
2023/09/25 09:45:13;;;;;;;;;;;;;;;22.37;71.48;97371.36;599217;236;66842;-64
2023/09/25 09:47:42;;;;;;;;;;;;;;;22.36;71.49;97365.20;599154;236;66703;-65
2023/09/25 09:50:10;;;;;;;;;;;;;;;22.37;71.38;97364.16;599198;236;65275;-64
2023/09/25 09:52:39;;;;;;;;;;;;;;;22.36;69.96;97362.53;599160;236;66693;-66
2023/09/25 09:55:07;;;;;;;;;;;;;;;22.37;68.80;97360.66;599193;236;68742;-65
2023/09/25 09:57:35;;;;;;;;;;;;;;;22.38;69.40;97363.07;599215;236;65044;-67
2023/09/25 10:00:07;;;;;;;;;;;;;;;22.40;71.00;97357.45;599236;236;66517;-65
2023/09/25 10:02:37;;;;;;;;;;;;;;;22.38;71.51;97347.00;599187;236;45955;-65
2023/09/25 10:05:05;;;;;;;;;;;;;;;22.39;71.36;97351.27;599251;236;65045;-65
2023/09/25 10:07:33;;;;;;;;;;;;;;;22.39;71.21;97359.31;599185;236;68878;-66
2023/09/25 10:10:07;;;;;;;;;;;;;;;22.39;70.96;97351.27;599220;236;68641;-65
2023/09/25 10:12:41;;;;;;;;;;;;;;;22.40;70.73;97349.42;599203;236;65048;-64
2023/09/25 10:15:11;;;;;;;;;;;;;;;22.40;71.02;97344.06;599193;236;68807;-65
2023/09/25 10:17:42;;;;;;;;;;;;;;;22.39;71.27;97340.56;599256;236;68749;-65
2023/09/25 10:20:28;;;;;;;;;;;;;;;22.39;71.14;97340.56;599190;236;65097;-65
2023/09/25 10:22:58;;;;;;;;;;;;;;;22.41;71.58;97342.19;599074;236;68840;-66
2023/09/25 10:25:26;;;;;;;;;;;;;;;22.39;71.78;97335.20;598979;236;66411;-65
2023/09/25 10:27:53;;;;;;;;;;;;;;;22.39;71.60;97335.20;588813;236;62991;-65
2023/09/25 10:30:23;;;;;;;;;;;;;;;22.39;71.59;97337.88;588578;241;66728;-65
2023/09/25 10:32:51;;;;;;;;;;;;;;;22.39;71.51;97332.53;592032;239;68973;-64
2023/09/25 10:35:37;;;;;;;;;;;;;;;22.38;71.37;97338.97;592661;239;63005;-65
2023/09/25 10:38:12;;;;;;;;;;;;;;;22.39;70.91;97329.85;592678;239;70010;-62
2023/09/25 10:40:41;;;;;;;;;;;;;;;22.41;70.82;97339.51;592653;239;68722;-64
2023/09/25 10:43:09;;;;;;;;;;;;;;;22.41;70.92;97331.47;592405;239;65215;-63
2023/09/25 10:45:38;;;;;;;;;;;;;;;22.41;70.69;97329.59;592707;239;68813;-63
2023/09/25 10:48:06;;;;;;;;;;;;;;;22.39;70.09;97329.85;592654;239;68676;-63
2023/09/25 10:50:33;;;;;;;;;;;;;;;22.41;69.96;97323.44;592648;239;65165;-64
2023/09/25 10:53:01;;;;;;;;;;;;;;;22.42;69.65;97333.06;592600;239;69304;-65
2023/09/25 10:55:28;;;;;;;;;;;;;;;22.42;69.77;97333.06;592651;239;68710;-64
2023/09/25 10:57:56;;;;;;;;;;;;;;;22.42;70.09;97333.06;592597;239;65099;-64
2023/09/25 11:00:24;;;;;;;;;;;;;;;22.43;70.14;97332.02;595688;237;66962;-64
2023/09/25 11:02:52;;;;;;;;;;;;;;;22.43;69.82;97334.69;597538;237;71254;-64
2023/09/25 11:05:21;;;;;;;;;;;;;;;22.42;69.40;97325.03;597544;237;63043;-65
2023/09/25 11:07:48;;;;;;;;;;;;;;;22.43;69.37;97334.69;597561;237;68786;-66
2023/09/25 11:10:16;;;;;;;;;;;;;;;22.43;69.31;97323.98;597527;237;68731;-62
2023/09/25 11:12:47;;;;;;;;;;;;;;;22.43;69.79;97334.69;597328;237;62800;-66
2023/09/25 11:15:15;;;;;;;;;;;;;;;22.43;69.43;97326.66;597563;237;69126;-63
2023/09/25 11:17:44;;;;;;;;;;;;;;;22.45;71.69;97327.16;597125;237;66755;-64
2023/09/25 11:20:12;;;;;;;;;;;;;;;22.43;72.16;97323.98;597503;237;64984;-64
2023/09/25 11:22:41;;;;;;;;;;;;;;;22.41;71.02;97318.09;597506;237;66673;-64
2023/09/25 11:25:12;;;;;;;;;;;;;;;22.42;70.04;97317.80;597559;237;68740;-64
2023/09/25 11:27:41;;;;;;;;;;;;;;;22.42;69.76;97319.67;597541;237;65160;-64
2023/09/25 11:30:13;;;;;;;;;;;;;;;22.43;69.89;97321.30;597172;237;68870;-63
2023/09/25 11:32:42;;;;;;;;;;;;;;;22.43;70.18;97313.27;597469;237;68810;-64
2023/09/25 11:35:13;;;;;;;;;;;;;;;22.43;70.10;97307.91;597572;237;62673;-64
2023/09/25 11:37:45;;;;;;;;;;;;;;;22.43;70.04;97305.23;597598;237;66681;-65
2023/09/25 11:40:13;;;;;;;;;;;;;;;22.44;70.41;97296.11;596627;237;68488;-65
2023/09/25 11:42:41;;;;;;;;;;;;;;;22.43;70.88;97306.03;597574;237;62090;-64
2023/09/25 11:45:11;;;;;;;;;;;;;;;22.44;71.03;97309.50;597633;237;68645;-65
2023/09/25 11:47:38;;;;;;;;;;;;;;;22.43;71.18;97302.55;597477;237;67120;-65
2023/09/25 11:50:06;;;;;;;;;;;;;;;22.44;70.96;97309.50;597624;237;63188;-65
2023/09/25 11:52:33;;;;;;;;;;;;;;;22.44;70.71;97299.59;597553;237;66349;-65
2023/09/25 11:55:01;;;;;;;;;;;;;;;22.43;70.93;97295.31;597475;237;66652;-66
2023/09/25 11:57:28;;;;;;;;;;;;;;;22.44;71.01;97299.59;597528;237;65022;-65
2023/09/25 11:59:56;;;;;;;;;;;;;;;22.43;70.63;97307.91;597553;237;67586;-66
2023/09/25 12:02:25;;;;;;;;;;;;;;;22.44;69.79;97298.79;597497;237;66557;-65
2023/09/25 12:04:55;;;;;;;;;;;;;;;22.44;70.33;97294.23;597576;237;65127;-65
2023/09/25 12:07:23;;;;;;;;;;;;;;;22.44;70.43;97301.47;597623;237;69912;-66
2023/09/25 12:09:51;;;;;;;;;;;;;;;22.44;69.84;97298.79;597505;237;68525;-65
2023/09/25 12:12:19;;;;;;;;;;;;;;;22.45;70.04;97295.82;597620;237;62952;-65
2023/09/25 12:14:46;;;;;;;;;;;;;;;22.45;70.22;97303.86;597582;237;68624;-65
2023/09/25 12:17:16;;;;;;;;;;;;;;;22.46;70.43;97296.65;597576;237;68581;-64
2023/09/25 12:19:43;;;;;;;;;;;;;;;22.46;70.11;97302.00;597535;237;64626;-64
2023/09/25 12:22:10;;;;;;;;;;;;;;;22.45;69.71;97303.06;597540;237;66294;-65
2023/09/25 12:24:38;;;;;;;;;;;;;;;22.45;69.50;97305.73;597587;237;68266;-65
2023/09/25 12:27:06;;;;;;;;;;;;;;;22.46;69.89;97299.33;597615;237;62784;-65
2023/09/25 12:29:33;;;;;;;;;;;;;;;22.46;69.71;97302.00;597526;237;69525;-65
2023/09/25 12:32:04;;;;;;;;;;;;;;;22.46;69.69;97305.48;597536;237;68428;-64
2023/09/25 12:34:30;;;;;;;;;;;;;;;22.46;69.92;97307.36;597615;237;64849;-65
2023/09/25 12:36:58;;;;;;;;;;;;;;;22.46;70.00;97296.65;597459;237;68623;-65
2023/09/25 12:39:26;;;;;;;;;;;;;;;22.46;70.03;97294.77;597618;237;66450;-65
2023/09/25 12:41:53;;;;;;;;;;;;;;;22.47;70.05;97292.88;597617;237;66041;-64
2023/09/25 12:44:21;;;;;;;;;;;;;;;22.47;69.89;97290.20;597560;237;68975;-64
2023/09/25 12:46:49;;;;;;;;;;;;;;;22.47;70.02;97298.24;597555;237;66393;-64
2023/09/25 12:49:19;;;;;;;;;;;;;;;22.47;69.53;97304.39;597610;237;62850;-65
2023/09/25 12:51:47;;;;;;;;;;;;;;;22.47;69.44;97290.20;597526;237;66551;-64
2023/09/25 12:54:15;;;;;;;;;;;;;;;22.47;69.86;97288.33;597537;237;68517;-65
2023/09/25 12:56:43;;;;;;;;;;;;;;;22.47;69.89;97293.68;597545;237;64933;-65